Flight Track Log - Related Links

Times and Time Zones

All times are in EDT time to prevent confusion due to time zone crossing. See the FDX1508 flight status page for this flight to view local times or setup timezone preferences in your user account.

Time Position Orientation Groundspeed Altitude Reporting Facility
EDT Latitude Longitude Course Direction KTS MPH feet Rate Location/Type
Tue 05:07:00 AM 35.0667 -90.0000 270° West 191 220 1,300  Level KMEM
Tue 05:08:06 AM 35.0667 -90.0833 270° West 277 319 3,900 2,900 Climbing KMEM
Tue 05:09:00 AM 35.0667 -90.1667 270° West 290 334 7,100 3,404 Climbing KMEM
Tue 05:09:50 AM 35.0886 -90.2556 287° West 302 348 9,800 3,000 Climbing Memphis Center
Tue 05:10:50 AM 35.1053 -90.3597 281° West 322 371 12,600 2,250 Climbing Memphis Center
Tue 05:11:50 AM 35.1242 -90.4867 280° West 362 417 14,300 1,700 Climbing Memphis Center
Tue 05:12:50 AM 35.1469 -90.6339 281° West 423 487 16,000 1,850 Climbing Memphis Center
Tue 05:13:50 AM 35.1672 -90.7939 279° West 467 537 18,000 2,050 Climbing Memphis Center
Tue 05:14:50 AM 35.1897 -90.9389 281° West 488 562 20,100 2,143 Climbing Memphis Center
Tue 05:20:36 AM 35.2830 -91.9680 281° West 497 572 32,500 2,005 Climbing FlightAware ADS-B
Tue 05:21:31 AM 35.2900 -92.1090 274° West 494 568 33,500 1,000 Climbing FlightAware ADS-B
Tue 05:22:06 AM 35.2960 -92.2170 274° West 496 571 34,000 353 Climbing FlightAware ADS-B
Tue 05:22:56 AM 35.3010 -92.3360 273° West 496 571 34,000  Level FlightAware ADS-B
Tue 05:23:38 AM 35.3080 -92.4780 273° West 498 573 34,000 293 Level FlightAware ADS-B
Tue 05:24:18 AM 35.3130 -92.5910 273° West 499 574 34,400 1,071 Climbing FlightAware ADS-B
Tue 05:25:02 AM 35.3190 -92.7120 274° West 500 575 35,500 1,200 Climbing FlightAware ADS-B
Tue 05:25:38 AM 35.3230 -92.8170 273° West 497 572 36,000 366 Climbing FlightAware ADS-B
Tue 05:26:24 AM 35.3290 -92.9460 273° West 500 575 36,000  Level FlightAware ADS-B
Tue 05:27:08 AM 35.3340 -93.0710 273° West 503 579 36,000  Level FlightAware ADS-B
Tue 05:27:42 AM 35.3380 -93.1710 273° West 503 579 36,000  Level FlightAware ADS-B
Tue 05:28:26 AM 35.3430 -93.2930 273° West 502 578 36,000  Level FlightAware ADS-B
Tue 05:29:06 AM 35.3470 -93.4060 273° West 501 577 36,000  Level FlightAware ADS-B
Tue 05:29:42 AM 35.3510 -93.5050 273° West 501 577 36,000  Level FlightAware ADS-B
Tue 05:30:22 AM 35.3550 -93.6220 272° West 502 578 36,000  Level FlightAware ADS-B
Tue 05:31:07 AM 35.3590 -93.7500 272° West 503 579 36,000  Level FlightAware ADS-B
Tue 05:31:47 AM 35.3630 -93.8610 273° West 504 580 36,000 76 Level FlightAware ADS-B
Tue 05:32:26 AM 35.3670 -93.9720 273° West 503 579 36,100 72 Climbing FlightAware ADS-B
Tue 05:33:10 AM 35.3710 -94.1000 272° West 500 575 36,100  Level FlightAware ADS-B
Tue 05:33:54 AM 35.3750 -94.2230 272° West 489 563 36,100 -77 Level FlightAware ADS-B
Tue 05:34:28 AM 35.3780 -94.3160 272° West 480 552 36,000 -78 Descending FlightAware ADS-B
Tue 05:35:11 AM 35.3810 -94.4260 272° West 473 544 36,000  Level FlightAware ADS-B
Tue 05:35:51 AM 35.3840 -94.5280 272° West 470 541 36,000  Level FlightAware ADS-B
Tue 05:36:36 AM 35.3880 -94.6580 272° West 471 542 36,000  Level FlightAware ADS-B
Tue 05:37:16 AM 35.3900 -94.7600 271° West 474 545 36,000  Level FlightAware ADS-B
Tue 05:38:01 AM 35.3940 -94.8810 272° West 479 551 36,000 63 Level FlightAware ADS-B
Tue 05:38:51 AM 35.3970 -95.0170 272° West 483 556 36,100 63 Climbing FlightAware ADS-B
Tue 05:39:36 AM 35.4000 -95.1350 272° West 485 558 36,100  Level FlightAware ADS-B
Tue 05:40:16 AM 35.4010 -95.2290 271° West 485 558 36,100  Level FlightAware ADS-B
Tue 05:41:14 AM 35.4060 -95.4160 272° West 488 562 36,100  Level FlightAware ADS-B
Tue 05:42:04 AM 35.4080 -95.5400 271° West 487 560 36,100 -63 Level FlightAware ADS-B
Tue 05:42:50 AM 35.4110 -95.6770 272° West 483 556 36,000 -71 Descending FlightAware ADS-B
Tue 05:43:28 AM 35.4130 -95.7660 272° West 483 556 36,000  Level FlightAware ADS-B
Tue 05:44:16 AM 35.4140 -95.8780 271° West 483 556 36,000  Level FlightAware ADS-B
Tue 05:44:58 AM 35.4170 -96.0280 271° West 481 554 36,000  Level FlightAware ADS-B
Tue 05:45:42 AM 35.4190 -96.1480 271° West 484 557 36,000  Level FlightAware ADS-B
Tue 05:46:18 AM 35.4210 -96.2470 271° West 488 562 36,000 81 Level FlightAware ADS-B
Tue 05:46:56 AM 35.4220 -96.3550 271° West 491 565 36,100 74 Climbing FlightAware ADS-B
Tue 05:47:39 AM 35.4240 -96.4700 271° West 492 566 36,100 -75 Level FlightAware ADS-B
Tue 05:48:16 AM 35.4250 -96.5750 271° West 491 565 36,000 -76 Descending FlightAware ADS-B
Tue 05:48:58 AM 35.4260 -96.6920 271° West 491 565 36,000  Level FlightAware ADS-B
Tue 05:49:39 AM 35.4270 -96.8060 271° West 490 564 36,000  Level FlightAware ADS-B
Tue 05:50:14 AM 35.4280 -96.9030 271° West 489 563 36,000  Level FlightAware ADS-B
Tue 05:51:29 AM 35.4300 -97.1100 271° West 487 560 36,000  Level FlightAware ADS-B
Tue 05:52:14 AM 35.4300 -97.2340 270° West 486 559 36,000  Level FlightAware ADS-B
Tue 05:53:08 AM 35.4310 -97.3660 271° West 486 559 36,000  Level FlightAware ADS-B
Tue 05:53:51 AM 35.4320 -97.4980 271° West 486 559 36,000  Level FlightAware ADS-B
Tue 05:54:32 AM 35.4320 -97.6130 270° West 488 562 36,000  Level FlightAware ADS-B
Tue 05:55:16 AM 35.4330 -97.7320 271° West 490 564 36,000  Level FlightAware ADS-B
Tue 05:56:13 AM 35.4330 -97.8940 270° West 496 571 36,000 63 Level FlightAware ADS-B
Tue 05:56:52 AM 35.4330 -97.9990 270° West 498 573 36,100 71 Climbing FlightAware ADS-B
Tue 05:57:37 AM 35.4330 -98.1180 270° West 501 577 36,100  Level FlightAware ADS-B
Tue 05:58:16 AM 35.4330 -98.2460 270° West 504 580 36,100  Level FlightAware ADS-B
Tue 05:59:01 AM 35.4310 -98.3520 269° West 503 579 36,100  Level FlightAware ADS-B
Tue 05:59:37 AM 35.4300 -98.4390 269° West 503 579 36,100  Level FlightAware ADS-B
Tue 06:02:44 AM 35.4230 -98.8930 269° West 503 579 36,100  Level FlightAware ADS-B
Tue 06:03:22 AM 35.4220 -98.9860 269° West 503 579 36,100  Level FlightAware ADS-B
Tue 06:04:10 AM 35.4200 -99.1020 269° West 503 579 36,100  Level FlightAware ADS-B
Tue 06:04:46 AM 35.4190 -99.1890 269° West 503 579 36,100  Level FlightAware ADS-B
Tue 06:05:34 AM 35.4170 -99.3060 269° West 503 579 36,100 -62 Level FlightAware ADS-B
Tue 06:06:23 AM 35.4220 -99.5750 271° West 482 555 36,000 -62 Descending FlightAware ADS-B
Tue 06:07:11 AM 35.4210 -99.6860 269° West 482 555 36,000  Level FlightAware ADS-B
Tue 06:07:47 AM 35.4190 -99.7700 268° West 482 555 36,000  Level FlightAware ADS-B
Tue 06:08:36 AM 35.4180 -99.8840 269° West 482 555 36,000  Level FlightAware ADS-B
Tue 06:09:24 AM 35.4160 -99.9960 269° West 482 555 36,000  Level FlightAware ADS-B
Tue 06:10:00 AM 35.4150 -100.0790 269° West 482 555 36,000  Level FlightAware ADS-B
Tue 06:10:48 AM 35.4130 -100.1910 269° West 482 555 36,000  Level FlightAware ADS-B
Tue 06:11:00 AM 35.4130 -100.2190 270° West 482 555 36,000  Level FlightAware ADS-B
Tue 06:12:33 AM 35.4100 -100.4350 269° West 482 555 36,000  Level FlightAware ADS-B
Tue 06:13:09 AM 35.4090 -100.5190 269° West 482 555 36,000  Level FlightAware ADS-B
Tue 06:13:58 AM 35.4070 -100.6330 269° West 482 555 36,000  Level FlightAware ADS-B
Tue 06:14:34 AM 35.4060 -100.7160 269° West 482 555 36,000 1,091 Level FlightAware ADS-B
Tue 06:15:48 AM 35.6328 -101.1531 269° West 502 578 38,000 896 Climbing Albuquerque Center
Tue 06:16:48 AM 35.6575 -101.3200 280° West 502 578 38,000  Level Albuquerque Center
Tue 06:17:49 AM 35.6822 -101.4847 281° West 499 574 38,000  Level Albuquerque Center
Tue 06:18:49 AM 35.7025 -101.6492 279° West 495 570 38,000  Level Albuquerque Center
Tue 06:19:49 AM 35.7200 -101.8114 278° West 488 562 38,000  Level Albuquerque Center
Tue 06:20:49 AM 35.7144 -101.9761 268° West 488 562 38,000  Level Albuquerque Center
Tue 06:21:49 AM 35.7064 -102.1453 267° West 497 572 38,000  Level Albuquerque Center
Tue 06:22:50 AM 35.6953 -102.3139 265° West 499 574 38,000  Level Albuquerque Center
Tue 06:23:50 AM 35.6842 -102.4833 265° West 500 575 38,000  Level Albuquerque Center
Tue 06:24:50 AM 35.6758 -102.6514 267° West 497 572 38,000  Level Albuquerque Center
Tue 06:25:50 AM 35.6644 -102.8192 265° West 496 571 38,000  Level Albuquerque Center
Tue 06:26:50 AM 35.6522 -102.9942 265° West 488 562 38,000  Level Albuquerque Center
Tue 06:27:51 AM 35.6411 -103.1619 265° West 488 562 38,000  Level Albuquerque Center
Tue 06:28:51 AM 35.6306 -103.3306 266° West 491 565 38,000  Level Albuquerque Center
Tue 06:29:51 AM 35.6183 -103.4942 265° West 482 555 38,000  Level Albuquerque Center
Tue 06:30:51 AM 35.6069 -103.6586 265° West 481 554 38,000  Level Albuquerque Center
Tue 06:31:51 AM 35.5958 -103.8225 265° West 480 552 38,000  Level Albuquerque Center
Tue 06:32:52 AM 35.5825 -103.9878 264° West 484 557 38,000  Level Albuquerque Center
Tue 06:33:52 AM 35.5711 -104.1489 265° West 478 550 38,000  Level Albuquerque Center
Tue 06:34:52 AM 35.5581 -104.3100 264° West 476 548 38,000  Level Albuquerque Center
Tue 06:35:52 AM 35.5453 -104.4703 264° West 473 544 38,000  Level Albuquerque Center
Tue 06:36:52 AM 35.5317 -104.6294 264° West 471 542 38,000  Level Albuquerque Center
Tue 06:37:53 AM 35.5192 -104.7894 265° West 469 540 38,000 50 Level Albuquerque Center
Tue 06:38:53 AM 35.5056 -104.9478 264° West 467 537 38,100  Climbing Albuquerque Center
Tue 06:44:03 AM 35.4360 -105.7680 264° West 460 529 38,000 -17 Descending FlightAware ADS-B
Tue 06:44:47 AM 35.4260 -105.8820 264° West 460 529 38,000  Level FlightAware ADS-B
Tue 06:44:55 AM 35.4240 -105.9020 263° West 460 529 38,000  Level FlightAware ADS-B
Tue 06:45:26 AM 35.4200 -105.9390 262° West 460 529 38,000  Level FlightAware ADS-B
Tue 06:46:35 AM 35.4000 -106.1620 264° West 462 532 38,000  Level FlightAware ADS-B
Tue 06:47:19 AM 35.3890 -106.2760 263° West 462 532 38,000  Level FlightAware ADS-B
Tue 06:47:59 AM 35.3790 -106.3810 263° West 464 534 38,000  Level FlightAware ADS-B
Tue 06:48:39 AM 35.3690 -106.4880 263° West 465 535 38,000  Level FlightAware ADS-B
Tue 06:49:23 AM 35.3580 -106.6000 263° West 466 536 38,000  Level FlightAware ADS-B
Tue 06:50:03 AM 35.3480 -106.7050 263° West 466 536 38,000  Level FlightAware ADS-B
Tue 06:50:49 AM 35.3360 -106.8260 263° West 466 536 38,000  Level FlightAware ADS-B
Tue 06:51:29 AM 35.3260 -106.9300 263° West 467 537 38,000  Level FlightAware ADS-B
Tue 06:52:13 AM 35.3140 -107.0460 263° West 468 539 38,000  Level FlightAware ADS-B
Tue 06:52:53 AM 35.3040 -107.1510 263° West 466 536 38,000  Level FlightAware ADS-B
Tue 06:53:49 AM 35.2890 -107.2970 263° West 467 537 38,000  Level FlightAware ADS-B
Tue 06:54:30 AM 35.2780 -107.3920 262° West 467 537 38,000  Level FlightAware ADS-B
Tue 06:55:19 AM 35.2650 -107.5200 263° West 469 540 38,000  Level FlightAware ADS-B
Tue 06:56:07 AM 35.2530 -107.6270 262° West 469 540 38,000 57 Level FlightAware ADS-B
Tue 06:57:05 AM 35.2350 -107.8120 263° West 472 543 38,100 63 Climbing FlightAware ADS-B
Tue 06:57:43 AM 35.2250 -107.9010 262° West 471 542 38,100  Level FlightAware ADS-B
Tue 06:58:31 AM 35.2120 -108.0090 262° West 471 542 38,100  Level FlightAware ADS-B
Tue 06:59:07 AM 35.2030 -108.0900 262° West 471 542 38,100  Level FlightAware ADS-B
Tue 06:59:55 AM 35.1910 -108.1980 262° West 471 542 38,100  Level FlightAware ADS-B
Tue 07:01:06 AM 35.1720 -108.3570 262° West 471 542 38,100  Level FlightAware ADS-B
Tue 07:01:54 AM 35.1600 -108.4650 262° West 471 542 38,100  Level FlightAware ADS-B
Tue 07:02:28 AM 35.1510 -108.5410 262° West 471 542 38,100  Level FlightAware ADS-B
Tue 07:03:17 AM 35.1380 -108.6510 262° West 471 542 38,100  Level FlightAware ADS-B
Tue 07:03:54 AM 35.1290 -108.7340 262° West 471 542 38,100 -71 Level FlightAware ADS-B
Tue 07:04:41 AM 35.1010 -109.0070 263° West 470 541 38,000 -75 Descending FlightAware ADS-B
Tue 07:05:14 AM 35.0910 -109.0800 261° West 470 541 38,000 75 Level FlightAware ADS-B
Tue 07:06:01 AM 35.0750 -109.2200 262° West 474 545 38,100 58 Climbing FlightAware ADS-B
Tue 07:06:58 AM 35.0600 -109.3631 262° West 475 547 38,100  Level Albuquerque Center
Tue 07:07:58 AM 35.0417 -109.5153 262° West 474 545 38,100 -14 Level Albuquerque Center
Tue 07:13:53 AM 34.9200 -110.4700 262° West 474 545 38,000 -13 Descending FlightAware ADS-B
Tue 07:15:53 AM 34.8790 -110.7830 261° West 473 544 38,000  Level FlightAware ADS-B
Tue 07:16:29 AM 34.8660 -110.8800 261° West 472 543 38,000  Level FlightAware ADS-B
Tue 07:17:11 AM 34.8520 -110.9910 261° West 472 543 38,000  Level FlightAware ADS-B
Tue 07:17:55 AM 34.8360 -111.1060 260° West 472 543 38,000  Level FlightAware ADS-B
Tue 07:18:35 AM 34.8220 -111.2100 261° West 471 542 38,000  Level FlightAware ADS-B
Tue 07:19:19 AM 34.8060 -111.3280 261° West 471 542 38,000  Level FlightAware ADS-B
Tue 07:19:57 AM 34.7930 -111.4240 261° West 472 543 38,000  Level FlightAware ADS-B
Tue 07:20:42 AM 34.7760 -111.5420 260° West 473 544 38,000  Level FlightAware ADS-B
Tue 07:21:18 AM 34.7630 -111.6370 261° West 475 547 38,000  Level FlightAware ADS-B
Tue 07:22:30 AM 34.7370 -111.8250 260° West 478 550 38,000 51 Level FlightAware ADS-B
Tue 07:23:16 AM 34.7190 -111.9490 260° West 479 551 38,100 70 Climbing FlightAware ADS-B
Tue 07:23:56 AM 34.7040 -112.0560 260° West 480 552 38,100  Level FlightAware ADS-B
Tue 07:24:40 AM 34.6880 -112.1700 260° West 479 551 38,100 -73 Level FlightAware ADS-B
Tue 07:25:18 AM 34.6730 -112.2720 260° West 474 545 38,000 -79 Descending FlightAware ADS-B
Tue 07:25:56 AM 34.6580 -112.3740 260° West 471 542 38,000  Level FlightAware ADS-B
Tue 07:26:40 AM 34.6420 -112.4860 260° West 470 541 38,000  Level FlightAware ADS-B
Tue 07:27:12 AM 34.6300 -112.5690 260° West 468 539 38,000  Level FlightAware ADS-B
Tue 07:28:02 AM 34.6100 -112.6980 259° West 470 541 38,000  Level FlightAware ADS-B
Tue 07:28:46 AM 34.5930 -112.8130 260° West 474 545 38,000 71 Level FlightAware ADS-B
Tue 07:29:26 AM 34.5780 -112.9180 260° West 476 548 38,100 39 Climbing FlightAware ADS-B
Tue 07:31:20 AM 34.5390 -113.1740 260° West 481 554 38,100  Level FlightAware ADS-B
Tue 07:32:01 AM 34.5200 -113.2930 259° West 482 555 38,100 -72 Level FlightAware ADS-B
Tue 07:32:43 AM 34.4980 -113.4360 259° West 481 554 38,000 -71 Descending FlightAware ADS-B
Tue 07:33:26 AM 34.4800 -113.5530 259° West 481 554 38,000  Level FlightAware ADS-B
Tue 07:34:06 AM 34.4640 -113.6590 260° West 482 555 38,000  Level FlightAware ADS-B
Tue 07:34:50 AM 34.4450 -113.7750 259° West 480 552 38,000  Level FlightAware ADS-B
Tue 07:35:30 AM 34.4290 -113.8810 260° West 479 551 38,000  Level FlightAware ADS-B
Tue 07:36:14 AM 34.4100 -113.9970 259° West 479 551 38,000  Level FlightAware ADS-B
Tue 07:36:55 AM 34.3940 -114.1020 260° West 479 551 38,000  Level FlightAware ADS-B
Tue 07:37:32 AM 34.3810 -114.2030 261° West 480 552 38,000  Level FlightAware ADS-B
Tue 07:38:12 AM 34.3670 -114.3090 261° West 482 555 38,000  Level FlightAware ADS-B
Tue 07:38:48 AM 34.3550 -114.4020 261° West 483 556 38,000  Level FlightAware ADS-B
Tue 07:39:39 AM 34.3450 -114.4720 260° West 484 557 38,000  Level FlightAware ADS-B
Tue 07:40:24 AM 34.3290 -114.5890 261° West 486 559 38,000  Level FlightAware ADS-B
Tue 07:41:09 AM 34.3020 -114.7800 260° West 489 563 38,000 71 Level FlightAware ADS-B
Tue 07:41:48 AM 34.2870 -114.8880 260° West 490 564 38,100 71 Climbing FlightAware ADS-B
Tue 07:42:33 AM 34.2700 -115.0100 260° West 489 563 38,100  Level FlightAware ADS-B
Tue 07:43:14 AM 34.2570 -115.1020 260° West 489 563 38,100 -71 Level FlightAware ADS-B
Tue 07:43:57 AM 34.2380 -115.2350 260° West 485 558 38,000 -81 Descending FlightAware ADS-B
Tue 07:44:28 AM 34.2260 -115.3180 260° West 484 557 38,000  Level FlightAware ADS-B
Tue 07:45:13 AM 34.2090 -115.4370 260° West 482 555 38,000  Level FlightAware ADS-B
Tue 07:46:07 AM 34.1900 -115.5640 260° West 480 552 38,000  Level FlightAware ADS-B
Tue 07:46:42 AM 34.1760 -115.6620 260° West 479 551 38,000  Level FlightAware ADS-B
Tue 07:47:23 AM 34.1610 -115.7670 260° West 478 550 38,000  Level FlightAware ADS-B
Tue 07:48:07 AM 34.1430 -115.8870 260° West 475 547 38,000 -152 Level FlightAware ADS-B
Tue 07:48:42 AM 34.1310 -115.9720 260° West 469 540 37,800 -1,342 Descending FlightAware ADS-B
Tue 07:49:23 AM 34.1150 -116.0780 260° West 467 537 36,300 -2,471 Descending FlightAware ADS-B
Tue 07:50:07 AM 34.0970 -116.1960 260° West 467 537 34,300 -2,786 Descending FlightAware ADS-B
Tue 07:50:47 AM 34.0820 -116.2910 259° West 468 539 32,400 -3,075 Descending FlightAware ADS-B
Tue 07:51:27 AM 34.0660 -116.3990 260° West 475 547 30,200 -3,318 Descending FlightAware ADS-B
Tue 07:52:12 AM 34.0470 -116.5170 259° West 478 550 27,700 -3,035 Descending FlightAware ADS-B
Tue 07:52:52 AM 34.0310 -116.6210 260° West 470 541 25,900 -2,211 Descending FlightAware ADS-B
Tue 07:53:28 AM 34.0190 -116.7040 260° West 451 519 24,900 -2,582 Descending FlightAware ADS-B
Tue 07:54:11 AM 33.9980 -116.8250 258° West 434 499 22,500 -3,035 Descending FlightAware ADS-B
Tue 07:54:53 AM 33.9840 -116.9220 260° West 416 479 20,600 -2,714 Descending FlightAware ADS-B
Tue 07:55:35 AM 33.9700 -117.0170 260° West 408 470 18,700 -2,512 Descending FlightAware ADS-B
Tue 07:56:19 AM 33.9560 -117.1150 260° West 405 466 17,000 -1,735 Descending FlightAware ADS-B
Tue 07:56:58 AM 33.9480 -117.2000 264° West 399 459 16,300 -1,000 Descending FlightAware ADS-B
Tue 07:57:43 AM 33.9390 -117.3010 264° West 394 453 15,600 -918 Descending FlightAware ADS-B
Tue 07:58:23 AM 33.9310 -117.3870 264° West 389 448 15,000 -857 Descending FlightAware ADS-B
Tue 07:59:07 AM 33.9230 -117.4810 264° West 385 443 14,400 -786 Descending FlightAware ADS-B
Tue 07:59:47 AM 33.9240 -117.5670 271° West 389 448 13,900 -815 Descending FlightAware ADS-B
Tue 08:00:28 AM 33.9370 -117.6500 281° West 386 444 13,300 -857 Descending FlightAware ADS-B
Tue 08:01:11 AM 33.9490 -117.7470 279° West 380 437 12,700 -795 Descending FlightAware ADS-B
Tue 08:01:51 AM 33.9600 -117.8280 279° West 374 430 12,200 -837 Descending FlightAware ADS-B
Tue 08:02:37 AM 33.9720 -117.9210 279° West 351 404 11,500 -769 Descending FlightAware ADS-B
Tue 08:03:09 AM 33.9780 -117.9810 277° West 324 373 11,200 -640 Descending FlightAware ADS-B
Tue 08:03:52 AM 33.9710 -118.0520 263° West 293 337 10,700 -645 Descending FlightAware ADS-B
Tue 08:04:42 AM 33.9660 -118.1340 266° West 290 334 10,200 -640 Descending FlightAware ADS-B
Tue 08:05:07 AM 33.9720 -118.1720 281° West 288 331 9,900 -638 Descending FlightAware ADS-B
Tue 08:05:29 AM 33.9760 -118.2050 278° West 287 330 9,700 -686 Descending FlightAware ADS-B
Tue 08:05:42 AM 33.9790 -118.2290 279° West 286 329 9,500 -698 Descending FlightAware ADS-B
Tue 08:06:12 AM 33.9860 -118.2760 280° West 287 330 9,200 -545 Descending FlightAware ADS-B
Tue 08:06:37 AM 33.9910 -118.3130 279° West 282 325 9,000 -545 Descending FlightAware ADS-B
Tue 08:07:07 AM 33.9970 -118.3550 280° West 283 326 8,700 -679 Descending FlightAware ADS-B
Tue 08:07:30 AM 34.0020 -118.3970 278° West 282 325 8,400 -706 Descending FlightAware ADS-B
Tue 08:07:41 AM 34.0050 -118.4150 281° West 280 322 8,300 -1,538 Descending FlightAware ADS-B
Tue 08:08:09 AM 34.0090 -118.4580 276° West 273 314 7,400 -1,846 Descending FlightAware ADS-B
Tue 08:08:33 AM 34.0110 -118.4930 274° West 265 305 6,700 -2,000 Descending FlightAware ADS-B
Tue 08:09:09 AM 34.0140 -118.5470 274° West 263 303 5,400 -2,077 Descending FlightAware ADS-B
Tue 08:09:25 AM 34.0160 -118.5690 276° West 263 303 4,900 -1,846 Descending FlightAware ADS-B
Tue 08:09:35 AM 34.0170 -118.5820 275° West 262 302 4,600 533 Descending FlightAware ADS-B
Tue 08:10:10 AM 34.0150 -118.5510 94° East 264 304 5,300 240 Climbing FlightAware ADS-B
Tue 08:10:25 AM 34.0160 -118.5720 273° West 263 303 4,800 -1,067 Descending FlightAware ADS-B
Tue 08:10:55 AM 34.0170 -118.5890 274° West 263 303 4,500 -536 Descending FlightAware ADS-B
Tue 08:11:21 AM 34.0180 -118.5980 278° West 262 302 4,300 -316 Descending FlightAware ADS-B
Tue 08:11:52 AM 34.0190 -118.6440 272° West 259 298 4,200 -2,444 Descending FlightAware ADS-B
Tue 08:12:15 AM 33.9300 -118.6060 160° South 183 211 2,100 -3,500 Descending FlightAware ADS-B
Tue 08:12:28 AM 33.9310 -118.5840 87° East 182 209 2,100 -411 Level FlightAware ADS-B
Tue 08:13:28 AM 33.9380 -118.5240 82° East 169 194 1,600 -545 Descending FlightAware ADS-B
Tue 08:13:56 AM 33.9400 -118.5010 84° East 154 177 1,300 -750 Descending FlightAware ADS-B
Tue 08:14:24 AM 33.9420 -118.4770 84° East 151 174 900 -857 Descending FlightAware ADS-B
Tue 08:14:52 AM 33.9450 -118.4540 81° East 153 176 500 -735 Descending FlightAware ADS-B
Tue 08:15:13 AM 33.9460 -118.4380 86° East 154 177 300  Descending FlightAware ADS-B
Tue 08:15:45 AM 33.9450 -118.4480 263° West 152 175 500  Climbing FlightAware ADS-B
Tue 08:16:22 AM 33.9490 -118.4190 81° East 153 176 300 -324 Descending FlightAware ADS-B
Tue 08:23:00 AM 33.9425 -118.4081 104° East  Level Estimated
Tue 08:24:00 AM 33.9425 -118.4081 104° East  Level Estimated

Login

Don't have an account? Register now (free) for customized features, flight alerts, and more!